sensor_id;sensor_type;location;lat;lon;timestamp;P1;durP1;ratioP1;P2;durP2;ratioP2
11203;SDS011;5659;49.408;11.116;2023-05-27T00:02:00;22.52;;;4.93;;
11203;SDS011;5659;49.408;11.116;2023-05-27T00:04:26;17.10;;;4.65;;
11203;SDS011;5659;49.408;11.116;2023-05-27T00:06:52;15.45;;;4.90;;
11203;SDS011;5659;49.408;11.116;2023-05-27T00:09:18;18.40;;;4.47;;
11203;SDS011;5659;49.408;11.116;2023-05-27T00:11:45;19.73;;;5.00;;
11203;SDS011;5659;49.408;11.116;2023-05-27T00:14:11;19.35;;;5.15;;
11203;SDS011;5659;49.408;11.116;2023-05-27T00:16:37;18.38;;;5.43;;
11203;SDS011;5659;49.408;11.116;2023-05-27T00:19:03;16.42;;;4.82;;
11203;SDS011;5659;49.408;11.116;2023-05-27T00:21:30;17.17;;;5.25;;
11203;SDS011;5659;49.408;11.116;2023-05-27T00:23:56;15.50;;;4.43;;
11203;SDS011;5659;49.408;11.116;2023-05-27T00:26:25;12.63;;;4.60;;
11203;SDS011;5659;49.408;11.116;2023-05-27T00:28:51;16.42;;;5.03;;
11203;SDS011;5659;49.408;11.116;2023-05-27T00:31:17;15.20;;;4.57;;
11203;SDS011;5659;49.408;11.116;2023-05-27T00:33:43;16.33;;;4.53;;
11203;SDS011;5659;49.408;11.116;2023-05-27T00:36:09;15.07;;;4.32;;
11203;SDS011;5659;49.408;11.116;2023-05-27T00:38:36;16.73;;;5.38;;
11203;SDS011;5659;49.408;11.116;2023-05-27T00:41:02;15.27;;;4.95;;
11203;SDS011;5659;49.408;11.116;2023-05-27T00:43:28;14.93;;;5.20;;
11203;SDS011;5659;49.408;11.116;2023-05-27T00:45:58;17.77;;;5.00;;
11203;SDS011;5659;49.408;11.116;2023-05-27T00:48:24;11.85;;;4.30;;
11203;SDS011;5659;49.408;11.116;2023-05-27T00:50:50;17.42;;;4.75;;
11203;SDS011;5659;49.408;11.116;2023-05-27T00:53:16;17.17;;;5.03;;
11203;SDS011;5659;49.408;11.116;2023-05-27T00:55:42;22.63;;;5.20;;
11203;SDS011;5659;49.408;11.116;2023-05-27T00:58:08;18.38;;;4.88;;
11203;SDS011;5659;49.408;11.116;2023-05-27T01:00:35;18.48;;;4.95;;
11203;SDS011;5659;49.408;11.116;2023-05-27T01:03:04;15.27;;;4.53;;
11203;SDS011;5659;49.408;11.116;2023-05-27T01:05:31;14.23;;;4.35;;
11203;SDS011;5659;49.408;11.116;2023-05-27T01:08:00;12.60;;;4.32;;
11203;SDS011;5659;49.408;11.116;2023-05-27T01:10:38;16.35;;;4.32;;
11203;SDS011;5659;49.408;11.116;2023-05-27T01:13:08;11.98;;;4.35;;
11203;SDS011;5659;49.408;11.116;2023-05-27T01:15:36;16.27;;;5.00;;
11203;SDS011;5659;49.408;11.116;2023-05-27T01:18:03;17.33;;;4.50;;
11203;SDS011;5659;49.408;11.116;2023-05-27T01:20:29;16.58;;;4.50;;
11203;SDS011;5659;49.408;11.116;2023-05-27T01:22:55;20.38;;;4.38;;
11203;SDS011;5659;49.408;11.116;2023-05-27T01:25:22;16.40;;;4.80;;
11203;SDS011;5659;49.408;11.116;2023-05-27T01:27:49;20.13;;;5.10;;
11203;SDS011;5659;49.408;11.116;2023-05-27T01:30:16;17.65;;;4.90;;
11203;SDS011;5659;49.408;11.116;2023-05-27T01:33:00;17.65;;;4.82;;
11203;SDS011;5659;49.408;11.116;2023-05-27T01:35:29;14.80;;;4.63;;
11203;SDS011;5659;49.408;11.116;2023-05-27T01:37:57;16.95;;;4.82;;
11203;SDS011;5659;49.408;11.116;2023-05-27T01:40:24;16.40;;;4.45;;
11203;SDS011;5659;49.408;11.116;2023-05-27T01:42:50;17.23;;;4.32;;
11203;SDS011;5659;49.408;11.116;2023-05-27T01:45:16;19.00;;;4.65;;
11203;SDS011;5659;49.408;11.116;2023-05-27T01:47:43;19.35;;;4.63;;
11203;SDS011;5659;49.408;11.116;2023-05-27T01:50:10;13.60;;;4.40;;
11203;SDS011;5659;49.408;11.116;2023-05-27T01:52:36;11.35;;;4.35;;
11203;SDS011;5659;49.408;11.116;2023-05-27T01:55:02;13.57;;;3.53;;
11203;SDS011;5659;49.408;11.116;2023-05-27T01:57:29;15.43;;;4.40;;
11203;SDS011;5659;49.408;11.116;2023-05-27T01:59:55;13.40;;;4.28;;
11203;SDS011;5659;49.408;11.116;2023-05-27T02:02:21;19.55;;;5.38;;
11203;SDS011;5659;49.408;11.116;2023-05-27T02:04:47;19.30;;;5.70;;
11203;SDS011;5659;49.408;11.116;2023-05-27T02:07:13;16.00;;;4.80;;
11203;SDS011;5659;49.408;11.116;2023-05-27T02:09:41;26.27;;;7.07;;
11203;SDS011;5659;49.408;11.116;2023-05-27T02:12:08;16.38;;;5.32;;
11203;SDS011;5659;49.408;11.116;2023-05-27T02:14:34;17.60;;;4.55;;
11203;SDS011;5659;49.408;11.116;2023-05-27T02:17:03;19.52;;;5.22;;
11203;SDS011;5659;49.408;11.116;2023-05-27T02:19:29;17.60;;;5.38;;
11203;SDS011;5659;49.408;11.116;2023-05-27T02:21:55;16.13;;;4.45;;
11203;SDS011;5659;49.408;11.116;2023-05-27T02:24:21;20.00;;;5.40;;
11203;SDS011;5659;49.408;11.116;2023-05-27T02:26:47;23.42;;;5.53;;
11203;SDS011;5659;49.408;11.116;2023-05-27T02:29:13;20.17;;;4.95;;
11203;SDS011;5659;49.408;11.116;2023-05-27T02:31:39;16.33;;;4.35;;
11203;SDS011;5659;49.408;11.116;2023-05-27T02:34:05;15.82;;;4.63;;
11203;SDS011;5659;49.408;11.116;2023-05-27T02:36:31;17.60;;;5.75;;
11203;SDS011;5659;49.408;11.116;2023-05-27T02:38:58;14.35;;;4.25;;
11203;SDS011;5659;49.408;11.116;2023-05-27T02:41:24;17.45;;;4.60;;
11203;SDS011;5659;49.408;11.116;2023-05-27T02:43:51;17.77;;;4.57;;
11203;SDS011;5659;49.408;11.116;2023-05-27T02:46:17;12.80;;;4.40;;
11203;SDS011;5659;49.408;11.116;2023-05-27T02:48:43;16.73;;;4.68;;
11203;SDS011;5659;49.408;11.116;2023-05-27T02:51:09;17.15;;;4.45;;
11203;SDS011;5659;49.408;11.116;2023-05-27T02:53:35;12.00;;;4.53;;
11203;SDS011;5659;49.408;11.116;2023-05-27T02:56:01;14.23;;;4.72;;
11203;SDS011;5659;49.408;11.116;2023-05-27T02:58:27;12.35;;;4.45;;
11203;SDS011;5659;49.408;11.116;2023-05-27T03:00:53;12.80;;;4.32;;
11203;SDS011;5659;49.408;11.116;2023-05-27T03:03:19;16.17;;;4.43;;
11203;SDS011;5659;49.408;11.116;2023-05-27T03:05:45;16.23;;;4.30;;
11203;SDS011;5659;49.408;11.116;2023-05-27T03:08:12;14.40;;;4.60;;
11203;SDS011;5659;49.408;11.116;2023-05-27T03:10:38;14.23;;;4.75;;
11203;SDS011;5659;49.408;11.116;2023-05-27T03:13:04;13.32;;;4.38;;
11203;SDS011;5659;49.408;11.116;2023-05-27T03:15:30;20.00;;;4.82;;
11203;SDS011;5659;49.408;11.116;2023-05-27T03:17:57;15.50;;;4.90;;
11203;SDS011;5659;49.408;11.116;2023-05-27T03:20:23;16.13;;;5.25;;
11203;SDS011;5659;49.408;11.116;2023-05-27T03:22:49;13.25;;;4.50;;
11203;SDS011;5659;49.408;11.116;2023-05-27T03:25:15;14.98;;;4.30;;
11203;SDS011;5659;49.408;11.116;2023-05-27T03:27:41;12.63;;;4.80;;
11203;SDS011;5659;49.408;11.116;2023-05-27T03:30:07;15.30;;;4.53;;
11203;SDS011;5659;49.408;11.116;2023-05-27T03:32:33;14.52;;;4.80;;
11203;SDS011;5659;49.408;11.116;2023-05-27T03:35:00;15.55;;;5.28;;
11203;SDS011;5659;49.408;11.116;2023-05-27T03:37:26;18.98;;;4.18;;
11203;SDS011;5659;49.408;11.116;2023-05-27T03:39:52;18.92;;;4.60;;
11203;SDS011;5659;49.408;11.116;2023-05-27T03:42:18;12.57;;;4.35;;
11203;SDS011;5659;49.408;11.116;2023-05-27T03:44:44;16.15;;;4.60;;
11203;SDS011;5659;49.408;11.116;2023-05-27T03:47:10;14.75;;;3.83;;
11203;SDS011;5659;49.408;11.116;2023-05-27T03:49:36;14.55;;;4.13;;
11203;SDS011;5659;49.408;11.116;2023-05-27T03:52:02;17.83;;;5.37;;
11203;SDS011;5659;49.408;11.116;2023-05-27T03:54:28;14.07;;;4.40;;
11203;SDS011;5659;49.408;11.116;2023-05-27T03:56:54;15.20;;;4.83;;
11203;SDS011;5659;49.408;11.116;2023-05-27T03:59:20;15.65;;;4.72;;
11203;SDS011;5659;49.408;11.116;2023-05-27T04:01:46;12.13;;;3.92;;
11203;SDS011;5659;49.408;11.116;2023-05-27T04:04:13;11.98;;;4.22;;
11203;SDS011;5659;49.408;11.116;2023-05-27T04:06:39;11.88;;;4.20;;
11203;SDS011;5659;49.408;11.116;2023-05-27T04:09:06;14.45;;;4.50;;
11203;SDS011;5659;49.408;11.116;2023-05-27T04:11:32;15.88;;;4.40;;
11203;SDS011;5659;49.408;11.116;2023-05-27T04:13:58;16.23;;;4.55;;
11203;SDS011;5659;49.408;11.116;2023-05-27T04:16:24;19.10;;;4.25;;
11203;SDS011;5659;49.408;11.116;2023-05-27T04:18:51;16.55;;;4.45;;
11203;SDS011;5659;49.408;11.116;2023-05-27T04:21:17;13.85;;;4.80;;
11203;SDS011;5659;49.408;11.116;2023-05-27T04:23:43;23.02;;;4.88;;
11203;SDS011;5659;49.408;11.116;2023-05-27T04:26:09;18.70;;;5.43;;
11203;SDS011;5659;49.408;11.116;2023-05-27T04:28:35;19.77;;;4.85;;
11203;SDS011;5659;49.408;11.116;2023-05-27T04:31:03;12.50;;;4.38;;
11203;SDS011;5659;49.408;11.116;2023-05-27T04:33:29;11.50;;;3.95;;
11203;SDS011;5659;49.408;11.116;2023-05-27T04:35:55;13.45;;;4.15;;
11203;SDS011;5659;49.408;11.116;2023-05-27T04:38:24;12.55;;;4.32;;
11203;SDS011;5659;49.408;11.116;2023-05-27T04:40:50;13.15;;;4.30;;
11203;SDS011;5659;49.408;11.116;2023-05-27T04:43:19;12.52;;;4.35;;
11203;SDS011;5659;49.408;11.116;2023-05-27T04:45:46;14.30;;;4.55;;
11203;SDS011;5659;49.408;11.116;2023-05-27T04:48:12;16.92;;;4.20;;
11203;SDS011;5659;49.408;11.116;2023-05-27T04:50:39;14.05;;;4.15;;
11203;SDS011;5659;49.408;11.116;2023-05-27T04:53:06;11.57;;;4.03;;
11203;SDS011;5659;49.408;11.116;2023-05-27T04:55:32;15.05;;;4.45;;
11203;SDS011;5659;49.408;11.116;2023-05-27T04:57:58;14.23;;;4.32;;
11203;SDS011;5659;49.408;11.116;2023-05-27T05:00:24;14.85;;;4.50;;
11203;SDS011;5659;49.408;11.116;2023-05-27T05:03:09;13.65;;;4.50;;
11203;SDS011;5659;49.408;11.116;2023-05-27T05:05:35;20.00;;;4.57;;
11203;SDS011;5659;49.408;11.116;2023-05-27T05:08:01;14.07;;;4.18;;
11203;SDS011;5659;49.408;11.116;2023-05-27T05:10:29;15.45;;;4.30;;
11203;SDS011;5659;49.408;11.116;2023-05-27T05:12:55;12.85;;;4.40;;
11203;SDS011;5659;49.408;11.116;2023-05-27T05:15:21;13.93;;;4.22;;
11203;SDS011;5659;49.408;11.116;2023-05-27T05:17:47;13.05;;;4.10;;
11203;SDS011;5659;49.408;11.116;2023-05-27T05:20:13;13.70;;;4.05;;
11203;SDS011;5659;49.408;11.116;2023-05-27T05:22:39;12.82;;;3.92;;
11203;SDS011;5659;49.408;11.116;2023-05-27T05:25:05;15.98;;;4.45;;
11203;SDS011;5659;49.408;11.116;2023-05-27T05:27:32;16.10;;;4.88;;
11203;SDS011;5659;49.408;11.116;2023-05-27T05:29:59;12.98;;;3.83;;
11203;SDS011;5659;49.408;11.116;2023-05-27T05:32:25;14.63;;;4.45;;
11203;SDS011;5659;49.408;11.116;2023-05-27T05:34:51;13.50;;;4.20;;
11203;SDS011;5659;49.408;11.116;2023-05-27T05:37:17;11.65;;;4.50;;
11203;SDS011;5659;49.408;11.116;2023-05-27T05:39:43;18.50;;;4.28;;
11203;SDS011;5659;49.408;11.116;2023-05-27T05:42:09;10.52;;;3.70;;
11203;SDS011;5659;49.408;11.116;2023-05-27T05:44:35;15.48;;;4.22;;
11203;SDS011;5659;49.408;11.116;2023-05-27T05:47:01;13.02;;;4.05;;
11203;SDS011;5659;49.408;11.116;2023-05-27T05:49:27;13.25;;;4.45;;
11203;SDS011;5659;49.408;11.116;2023-05-27T05:51:53;12.18;;;4.07;;
11203;SDS011;5659;49.408;11.116;2023-05-27T05:54:19;17.35;;;4.80;;
11203;SDS011;5659;49.408;11.116;2023-05-27T05:56:45;11.95;;;4.57;;
11203;SDS011;5659;49.408;11.116;2023-05-27T05:59:11;11.75;;;3.90;;
11203;SDS011;5659;49.408;11.116;2023-05-27T06:01:37;10.07;;;3.60;;
11203;SDS011;5659;49.408;11.116;2023-05-27T06:04:03;10.27;;;3.72;;
11203;SDS011;5659;49.408;11.116;2023-05-27T06:06:31;8.98;;;3.65;;
11203;SDS011;5659;49.408;11.116;2023-05-27T06:08:57;11.68;;;4.22;;
11203;SDS011;5659;49.408;11.116;2023-05-27T06:11:23;13.38;;;3.90;;
11203;SDS011;5659;49.408;11.116;2023-05-27T06:13:51;14.82;;;4.40;;
11203;SDS011;5659;49.408;11.116;2023-05-27T06:16:17;14.38;;;4.30;;
11203;SDS011;5659;49.408;11.116;2023-05-27T06:18:43;16.77;;;4.68;;
11203;SDS011;5659;49.408;11.116;2023-05-27T06:21:12;10.57;;;4.10;;
11203;SDS011;5659;49.408;11.116;2023-05-27T06:23:38;13.23;;;4.30;;
11203;SDS011;5659;49.408;11.116;2023-05-27T06:26:04;15.23;;;3.92;;
11203;SDS011;5659;49.408;11.116;2023-05-27T06:28:30;18.00;;;4.13;;
11203;SDS011;5659;49.408;11.116;2023-05-27T06:30:56;11.55;;;3.78;;
11203;SDS011;5659;49.408;11.116;2023-05-27T06:33:22;12.70;;;4.13;;
11203;SDS011;5659;49.408;11.116;2023-05-27T06:35:48;12.90;;;3.72;;
11203;SDS011;5659;49.408;11.116;2023-05-27T06:38:14;16.17;;;4.05;;
11203;SDS011;5659;49.408;11.116;2023-05-27T06:40:40;12.02;;;3.85;;
11203;SDS011;5659;49.408;11.116;2023-05-27T06:43:06;13.07;;;3.95;;
11203;SDS011;5659;49.408;11.116;2023-05-27T06:45:32;11.68;;;3.95;;
11203;SDS011;5659;49.408;11.116;2023-05-27T06:47:58;11.70;;;3.80;;
11203;SDS011;5659;49.408;11.116;2023-05-27T06:50:24;13.95;;;4.13;;
11203;SDS011;5659;49.408;11.116;2023-05-27T06:52:50;12.50;;;4.40;;
11203;SDS011;5659;49.408;11.116;2023-05-27T06:55:17;15.55;;;3.85;;
11203;SDS011;5659;49.408;11.116;2023-05-27T06:57:44;13.70;;;3.70;;
11203;SDS011;5659;49.408;11.116;2023-05-27T07:00:10;16.75;;;4.28;;
11203;SDS011;5659;49.408;11.116;2023-05-27T07:02:36;16.23;;;4.50;;
11203;SDS011;5659;49.408;11.116;2023-05-27T07:05:02;18.35;;;4.40;;
11203;SDS011;5659;49.408;11.116;2023-05-27T07:07:28;11.93;;;3.95;;
11203;SDS011;5659;49.408;11.116;2023-05-27T07:09:54;16.25;;;4.20;;
11203;SDS011;5659;49.408;11.116;2023-05-27T07:12:20;16.55;;;4.70;;
11203;SDS011;5659;49.408;11.116;2023-05-27T07:14:46;11.23;;;4.55;;
11203;SDS011;5659;49.408;11.116;2023-05-27T07:17:12;11.20;;;4.25;;
11203;SDS011;5659;49.408;11.116;2023-05-27T07:19:38;13.20;;;4.10;;
11203;SDS011;5659;49.408;11.116;2023-05-27T07:22:04;12.32;;;3.97;;
11203;SDS011;5659;49.408;11.116;2023-05-27T07:24:30;14.82;;;4.55;;
11203;SDS011;5659;49.408;11.116;2023-05-27T07:26:56;16.20;;;4.15;;
11203;SDS011;5659;49.408;11.116;2023-05-27T07:29:22;11.73;;;4.72;;
11203;SDS011;5659;49.408;11.116;2023-05-27T07:31:48;12.85;;;4.47;;
11203;SDS011;5659;49.408;11.116;2023-05-27T07:34:14;11.02;;;4.35;;
11203;SDS011;5659;49.408;11.116;2023-05-27T07:36:40;13.65;;;4.60;;
11203;SDS011;5659;49.408;11.116;2023-05-27T07:39:06;14.25;;;4.38;;
11203;SDS011;5659;49.408;11.116;2023-05-27T07:41:32;15.23;;;4.00;;
11203;SDS011;5659;49.408;11.116;2023-05-27T07:43:59;13.30;;;4.55;;
11203;SDS011;5659;49.408;11.116;2023-05-27T07:46:24;10.57;;;4.28;;
11203;SDS011;5659;49.408;11.116;2023-05-27T07:48:50;14.63;;;4.35;;
11203;SDS011;5659;49.408;11.116;2023-05-27T07:51:16;12.38;;;3.72;;
11203;SDS011;5659;49.408;11.116;2023-05-27T07:53:42;14.40;;;3.78;;
11203;SDS011;5659;49.408;11.116;2023-05-27T07:56:08;10.43;;;4.30;;
11203;SDS011;5659;49.408;11.116;2023-05-27T07:58:34;9.32;;;3.92;;
11203;SDS011;5659;49.408;11.116;2023-05-27T08:01:00;9.95;;;3.60;;
11203;SDS011;5659;49.408;11.116;2023-05-27T08:03:26;12.70;;;4.20;;
11203;SDS011;5659;49.408;11.116;2023-05-27T08:05:52;10.30;;;4.05;;
11203;SDS011;5659;49.408;11.116;2023-05-27T08:08:18;8.88;;;3.50;;
11203;SDS011;5659;49.408;11.116;2023-05-27T08:10:44;10.95;;;3.90;;
11203;SDS011;5659;49.408;11.116;2023-05-27T08:13:11;9.40;;;3.67;;
11203;SDS011;5659;49.408;11.116;2023-05-27T08:15:37;9.85;;;3.88;;
11203;SDS011;5659;49.408;11.116;2023-05-27T08:18:03;15.45;;;4.03;;
11203;SDS011;5659;49.408;11.116;2023-05-27T08:20:29;11.32;;;4.28;;
11203;SDS011;5659;49.408;11.116;2023-05-27T08:22:55;14.73;;;4.20;;
11203;SDS011;5659;49.408;11.116;2023-05-27T08:25:21;14.55;;;4.22;;
11203;SDS011;5659;49.408;11.116;2023-05-27T08:27:51;14.18;;;4.47;;
11203;SDS011;5659;49.408;11.116;2023-05-27T08:30:17;10.65;;;4.10;;
11203;SDS011;5659;49.408;11.116;2023-05-27T08:32:44;11.18;;;4.20;;
11203;SDS011;5659;49.408;11.116;2023-05-27T08:35:10;12.63;;;4.00;;
11203;SDS011;5659;49.408;11.116;2023-05-27T08:37:36;10.30;;;4.10;;
11203;SDS011;5659;49.408;11.116;2023-05-27T08:40:03;13.10;;;4.57;;
11203;SDS011;5659;49.408;11.116;2023-05-27T08:42:32;11.98;;;3.78;;
11203;SDS011;5659;49.408;11.116;2023-05-27T08:44:59;15.93;;;4.18;;
11203;SDS011;5659;49.408;11.116;2023-05-27T08:47:25;11.05;;;4.20;;
11203;SDS011;5659;49.408;11.116;2023-05-27T08:49:51;10.50;;;4.03;;
11203;SDS011;5659;49.408;11.116;2023-05-27T08:52:18;15.57;;;4.30;;
11203;SDS011;5659;49.408;11.116;2023-05-27T08:54:47;12.10;;;4.40;;
11203;SDS011;5659;49.408;11.116;2023-05-27T08:57:15;12.52;;;4.20;;
11203;SDS011;5659;49.408;11.116;2023-05-27T08:59:41;13.90;;;4.45;;
11203;SDS011;5659;49.408;11.116;2023-05-27T09:02:11;16.75;;;4.43;;
11203;SDS011;5659;49.408;11.116;2023-05-27T09:04:40;9.90;;;4.00;;
11203;SDS011;5659;49.408;11.116;2023-05-27T09:07:06;13.00;;;4.05;;
11203;SDS011;5659;49.408;11.116;2023-05-27T09:09:33;13.75;;;4.55;;
11203;SDS011;5659;49.408;11.116;2023-05-27T09:11:59;12.27;;;4.50;;
11203;SDS011;5659;49.408;11.116;2023-05-27T09:14:27;9.77;;;3.78;;
11203;SDS011;5659;49.408;11.116;2023-05-27T09:16:53;13.40;;;3.83;;
11203;SDS011;5659;49.408;11.116;2023-05-27T09:19:20;13.27;;;4.15;;
11203;SDS011;5659;49.408;11.116;2023-05-27T09:21:46;12.60;;;5.00;;
11203;SDS011;5659;49.408;11.116;2023-05-27T09:24:15;10.88;;;4.47;;
11203;SDS011;5659;49.408;11.116;2023-05-27T09:26:41;11.27;;;3.88;;
11203;SDS011;5659;49.408;11.116;2023-05-27T09:29:07;11.32;;;3.75;;
11203;SDS011;5659;49.408;11.116;2023-05-27T09:31:40;12.77;;;3.92;;
11203;SDS011;5659;49.408;11.116;2023-05-27T09:34:10;15.20;;;4.13;;
11203;SDS011;5659;49.408;11.116;2023-05-27T09:36:41;14.57;;;4.57;;
11203;SDS011;5659;49.408;11.116;2023-05-27T09:39:08;12.40;;;4.13;;
11203;SDS011;5659;49.408;11.116;2023-05-27T09:41:34;17.85;;;4.80;;
11203;SDS011;5659;49.408;11.116;2023-05-27T09:44:01;11.90;;;4.70;;
11203;SDS011;5659;49.408;11.116;2023-05-27T09:46:30;12.63;;;4.07;;
11203;SDS011;5659;49.408;11.116;2023-05-27T09:48:58;11.45;;;3.83;;
11203;SDS011;5659;49.408;11.116;2023-05-27T09:51:25;13.68;;;4.15;;
11203;SDS011;5659;49.408;11.116;2023-05-27T09:53:53;13.00;;;4.10;;
11203;SDS011;5659;49.408;11.116;2023-05-27T09:56:25;12.15;;;4.47;;
11203;SDS011;5659;49.408;11.116;2023-05-27T09:58:53;19.30;;;4.70;;
11203;SDS011;5659;49.408;11.116;2023-05-27T10:01:21;13.23;;;4.00;;
11203;SDS011;5659;49.408;11.116;2023-05-27T10:03:48;11.82;;;3.95;;
11203;SDS011;5659;49.408;11.116;2023-05-27T10:06:15;15.38;;;3.78;;
11203;SDS011;5659;49.408;11.116;2023-05-27T10:08:43;12.60;;;4.25;;
11203;SDS011;5659;49.408;11.116;2023-05-27T10:11:12;11.65;;;3.42;;
11203;SDS011;5659;49.408;11.116;2023-05-27T10:13:38;10.80;;;4.22;;
11203;SDS011;5659;49.408;11.116;2023-05-27T10:16:05;10.50;;;3.95;;
11203;SDS011;5659;49.408;11.116;2023-05-27T10:18:31;17.35;;;4.40;;
11203;SDS011;5659;49.408;11.116;2023-05-27T10:20:59;9.73;;;3.47;;
11203;SDS011;5659;49.408;11.116;2023-05-27T10:23:26;14.68;;;4.15;;
11203;SDS011;5659;49.408;11.116;2023-05-27T10:25:53;11.38;;;4.30;;
11203;SDS011;5659;49.408;11.116;2023-05-27T10:28:30;12.63;;;4.35;;
11203;SDS011;5659;49.408;11.116;2023-05-27T10:31:10;14.13;;;4.10;;
11203;SDS011;5659;49.408;11.116;2023-05-27T10:33:37;9.75;;;3.60;;
11203;SDS011;5659;49.408;11.116;2023-05-27T10:36:08;13.50;;;4.35;;
11203;SDS011;5659;49.408;11.116;2023-05-27T10:38:34;10.10;;;3.90;;
11203;SDS011;5659;49.408;11.116;2023-05-27T10:41:02;12.50;;;4.15;;
11203;SDS011;5659;49.408;11.116;2023-05-27T10:43:28;9.90;;;3.75;;
11203;SDS011;5659;49.408;11.116;2023-05-27T10:46:08;14.23;;;4.40;;
11203;SDS011;5659;49.408;11.116;2023-05-27T10:48:34;8.45;;;3.53;;
11203;SDS011;5659;49.408;11.116;2023-05-27T10:51:02;11.57;;;4.47;;
11203;SDS011;5659;49.408;11.116;2023-05-27T10:53:28;8.40;;;3.90;;
11203;SDS011;5659;49.408;11.116;2023-05-27T10:55:57;10.35;;;3.78;;
11203;SDS011;5659;49.408;11.116;2023-05-27T10:58:23;9.00;;;4.05;;
11203;SDS011;5659;49.408;11.116;2023-05-27T11:00:50;8.82;;;4.13;;
11203;SDS011;5659;49.408;11.116;2023-05-27T11:03:21;11.07;;;3.90;;
11203;SDS011;5659;49.408;11.116;2023-05-27T11:05:56;9.90;;;3.90;;
11203;SDS011;5659;49.408;11.116;2023-05-27T11:08:22;7.32;;;3.72;;
11203;SDS011;5659;49.408;11.116;2023-05-27T11:10:48;8.45;;;3.72;;
11203;SDS011;5659;49.408;11.116;2023-05-27T11:13:14;9.98;;;3.75;;
11203;SDS011;5659;49.408;11.116;2023-05-27T11:15:40;9.40;;;3.65;;
11203;SDS011;5659;49.408;11.116;2023-05-27T11:18:07;9.63;;;3.88;;
11203;SDS011;5659;49.408;11.116;2023-05-27T11:20:37;8.73;;;3.55;;
11203;SDS011;5659;49.408;11.116;2023-05-27T11:23:03;12.75;;;3.80;;
11203;SDS011;5659;49.408;11.116;2023-05-27T11:25:39;9.65;;;4.00;;
11203;SDS011;5659;49.408;11.116;2023-05-27T11:28:10;8.80;;;3.70;;
11203;SDS011;5659;49.408;11.116;2023-05-27T11:30:38;8.93;;;3.83;;
11203;SDS011;5659;49.408;11.116;2023-05-27T11:33:04;11.55;;;3.92;;
11203;SDS011;5659;49.408;11.116;2023-05-27T11:35:30;9.60;;;3.60;;
11203;SDS011;5659;49.408;11.116;2023-05-27T11:37:56;8.68;;;3.80;;
11203;SDS011;5659;49.408;11.116;2023-05-27T11:40:22;8.07;;;3.90;;
11203;SDS011;5659;49.408;11.116;2023-05-27T11:42:48;12.55;;;3.40;;
11203;SDS011;5659;49.408;11.116;2023-05-27T11:45:15;10.23;;;3.70;;
11203;SDS011;5659;49.408;11.116;2023-05-27T11:47:42;9.23;;;3.83;;
11203;SDS011;5659;49.408;11.116;2023-05-27T11:50:08;8.38;;;3.78;;
11203;SDS011;5659;49.408;11.116;2023-05-27T11:52:35;12.18;;;3.83;;
11203;SDS011;5659;49.408;11.116;2023-05-27T11:55:01;9.82;;;3.67;;
11203;SDS011;5659;49.408;11.116;2023-05-27T11:57:26;9.35;;;3.40;;
11203;SDS011;5659;49.408;11.116;2023-05-27T11:59:55;9.80;;;3.88;;
11203;SDS011;5659;49.408;11.116;2023-05-27T12:02:22;12.90;;;4.05;;
11203;SDS011;5659;49.408;11.116;2023-05-27T12:04:48;13.55;;;4.05;;
11203;SDS011;5659;49.408;11.116;2023-05-27T12:07:14;12.23;;;3.65;;
11203;SDS011;5659;49.408;11.116;2023-05-27T12:09:40;11.05;;;3.55;;
11203;SDS011;5659;49.408;11.116;2023-05-27T12:12:06;8.60;;;3.78;;
11203;SDS011;5659;49.408;11.116;2023-05-27T12:14:32;9.75;;;4.00;;
11203;SDS011;5659;49.408;11.116;2023-05-27T12:16:58;10.18;;;3.90;;
11203;SDS011;5659;49.408;11.116;2023-05-27T12:19:24;10.27;;;3.95;;
11203;SDS011;5659;49.408;11.116;2023-05-27T12:21:51;7.03;;;3.45;;
11203;SDS011;5659;49.408;11.116;2023-05-27T12:24:17;9.98;;;3.88;;
11203;SDS011;5659;49.408;11.116;2023-05-27T12:26:45;10.85;;;3.80;;
11203;SDS011;5659;49.408;11.116;2023-05-27T12:29:12;9.23;;;3.90;;
11203;SDS011;5659;49.408;11.116;2023-05-27T12:31:39;9.00;;;4.25;;
11203;SDS011;5659;49.408;11.116;2023-05-27T12:34:05;8.27;;;3.85;;
11203;SDS011;5659;49.408;11.116;2023-05-27T12:36:31;8.18;;;3.80;;
11203;SDS011;5659;49.408;11.116;2023-05-27T12:38:57;7.10;;;3.53;;
11203;SDS011;5659;49.408;11.116;2023-05-27T12:41:23;7.53;;;3.40;;
11203;SDS011;5659;49.408;11.116;2023-05-27T12:43:49;8.10;;;4.30;;
11203;SDS011;5659;49.408;11.116;2023-05-27T12:46:15;10.93;;;4.18;;
11203;SDS011;5659;49.408;11.116;2023-05-27T12:48:41;7.78;;;4.05;;
11203;SDS011;5659;49.408;11.116;2023-05-27T12:51:07;9.23;;;4.47;;
11203;SDS011;5659;49.408;11.116;2023-05-27T12:53:33;7.45;;;3.78;;
11203;SDS011;5659;49.408;11.116;2023-05-27T12:55:59;6.80;;;3.72;;
11203;SDS011;5659;49.408;11.116;2023-05-27T12:58:25;7.70;;;4.07;;
11203;SDS011;5659;49.408;11.116;2023-05-27T13:00:52;9.65;;;4.05;;
11203;SDS011;5659;49.408;11.116;2023-05-27T13:03:18;10.52;;;3.85;;
11203;SDS011;5659;49.408;11.116;2023-05-27T13:05:44;9.90;;;4.75;;
11203;SDS011;5659;49.408;11.116;2023-05-27T13:08:10;9.25;;;3.88;;
11203;SDS011;5659;49.408;11.116;2023-05-27T13:10:36;11.38;;;4.18;;
11203;SDS011;5659;49.408;11.116;2023-05-27T13:13:02;9.43;;;3.95;;
11203;SDS011;5659;49.408;11.116;2023-05-27T13:15:29;11.82;;;4.13;;
11203;SDS011;5659;49.408;11.116;2023-05-27T13:17:55;8.07;;;3.58;;
11203;SDS011;5659;49.408;11.116;2023-05-27T13:20:24;8.43;;;4.05;;
11203;SDS011;5659;49.408;11.116;2023-05-27T13:22:50;11.30;;;3.45;;
11203;SDS011;5659;49.408;11.116;2023-05-27T13:25:17;7.53;;;3.53;;
11203;SDS011;5659;49.408;11.116;2023-05-27T13:27:44;8.20;;;3.92;;
11203;SDS011;5659;49.408;11.116;2023-05-27T13:30:14;9.82;;;4.03;;
11203;SDS011;5659;49.408;11.116;2023-05-27T13:32:40;10.98;;;3.80;;
11203;SDS011;5659;49.408;11.116;2023-05-27T13:35:07;13.18;;;4.22;;
11203;SDS011;5659;49.408;11.116;2023-05-27T13:37:34;9.68;;;3.95;;
11203;SDS011;5659;49.408;11.116;2023-05-27T13:39:59;7.07;;;3.70;;
11203;SDS011;5659;49.408;11.116;2023-05-27T13:42:26;8.60;;;4.78;;
11203;SDS011;5659;49.408;11.116;2023-05-27T13:44:52;7.78;;;4.00;;
11203;SDS011;5659;49.408;11.116;2023-05-27T13:47:18;7.35;;;4.05;;
11203;SDS011;5659;49.408;11.116;2023-05-27T13:49:44;6.97;;;3.78;;
11203;SDS011;5659;49.408;11.116;2023-05-27T13:52:10;10.15;;;3.85;;
11203;SDS011;5659;49.408;11.116;2023-05-27T13:54:36;10.95;;;4.20;;
11203;SDS011;5659;49.408;11.116;2023-05-27T13:57:02;8.35;;;4.03;;
11203;SDS011;5659;49.408;11.116;2023-05-27T13:59:35;5.60;;;3.42;;
11203;SDS011;5659;49.408;11.116;2023-05-27T14:02:02;8.57;;;3.88;;
11203;SDS011;5659;49.408;11.116;2023-05-27T14:04:31;10.10;;;4.32;;
11203;SDS011;5659;49.408;11.116;2023-05-27T14:06:57;9.30;;;4.50;;
11203;SDS011;5659;49.408;11.116;2023-05-27T14:09:23;11.30;;;4.05;;
11203;SDS011;5659;49.408;11.116;2023-05-27T14:11:49;8.30;;;4.43;;
11203;SDS011;5659;49.408;11.116;2023-05-27T14:14:15;7.88;;;5.15;;
11203;SDS011;5659;49.408;11.116;2023-05-27T14:16:41;7.70;;;4.03;;
11203;SDS011;5659;49.408;11.116;2023-05-27T14:19:07;10.00;;;4.97;;
11203;SDS011;5659;49.408;11.116;2023-05-27T14:21:33;12.23;;;7.45;;
11203;SDS011;5659;49.408;11.116;2023-05-27T14:23:59;8.73;;;3.90;;
11203;SDS011;5659;49.408;11.116;2023-05-27T14:26:25;10.18;;;4.22;;
11203;SDS011;5659;49.408;11.116;2023-05-27T14:28:52;10.73;;;4.13;;
11203;SDS011;5659;49.408;11.116;2023-05-27T14:31:18;8.52;;;4.45;;
11203;SDS011;5659;49.408;11.116;2023-05-27T14:33:43;9.88;;;5.80;;
11203;SDS011;5659;49.408;11.116;2023-05-27T14:36:10;7.68;;;3.90;;